Time;durP1;ratioP1;P1;durP2;ratioP2;P2;SDS_P1;SDS_P2;PMS_P1;PMS_P2;Temp;Humidity;BMP_temperature;BMP_pressure;BME280_temperature;BME280_humidity;BME280_pressure;Samples;Min_cycle;Max_cycle;Signal;HPM_P1;HPM_P2
2022/07/09 00:01:25;;;;;;;1.70;1.00;;;;;;;;;;5073318;28;20880;-83
2022/07/09 00:03:52;;;;;;;1.90;1.08;;;;;;;;;;5071539;28;20390;-83
2022/07/09 00:06:18;;;;;;;1.80;1.17;;;;;;;;;;5068558;28;20889;-83
2022/07/09 00:08:44;;;;;;;1.83;1.08;;;;;;;;;;5074502;28;20418;-83
2022/07/09 00:11:10;;;;;;;3.78;1.30;;;;;;;;;;5074372;28;20733;-83
2022/07/09 00:13:36;;;;;;;1.75;1.10;;;;;;;;;;5074385;28;20380;-83
2022/07/09 00:16:02;;;;;;;1.83;1.20;;;;;;;;;;5073408;28;20383;-83
2022/07/09 00:18:28;;;;;;;2.50;1.20;;;;;;;;;;5073390;28;20376;-83
2022/07/09 00:20:55;;;;;;;2.80;1.30;;;;;;;;;;5074361;28;20383;-83
2022/07/09 00:23:21;;;;;;;2.72;1.10;;;;;;;;;;5073219;28;20384;-83
2022/07/09 00:25:47;;;;;;;1.40;1.00;;;;;;;;;;5074378;28;20411;-83
2022/07/09 00:28:13;;;;;;;2.30;1.10;;;;;;;;;;5074203;28;20435;-83
2022/07/09 00:30:42;;;;;;;1.50;1.23;;;;;;;;;;5074136;28;20879;-83
2022/07/09 00:33:08;;;;;;;2.28;1.15;;;;;;;;;;5074482;28;20434;-83
2022/07/09 00:35:34;;;;;;;2.33;1.17;;;;;;;;;;5073715;28;20897;-83
2022/07/09 00:38:03;;;;;;;2.75;1.25;;;;;;;;;;5074065;28;20475;-83
2022/07/09 00:40:29;;;;;;;2.90;1.50;;;;;;;;;;5073833;28;20877;-83
2022/07/09 00:42:55;;;;;;;2.00;1.30;;;;;;;;;;5073950;28;20433;-83
2022/07/09 00:45:23;;;;;;;2.97;1.30;;;;;;;;;;5073775;28;20866;-83
2022/07/09 00:47:49;;;;;;;2.58;1.20;;;;;;;;;;5073832;28;20368;-83
2022/07/09 00:50:15;;;;;;;2.08;1.38;;;;;;;;;;5073443;28;20386;-83
2022/07/09 00:52:41;;;;;;;2.25;1.45;;;;;;;;;;5088094;28;20445;-83
2022/07/09 00:55:08;;;;;;;2.37;1.17;;;;;;;;;;5093910;28;20398;-83
2022/07/09 00:57:35;;;;;;;3.00;1.30;;;;;;;;;;5093953;28;20374;-83
2022/07/09 01:00:01;;;;;;;3.25;1.30;;;;;;;;;;5093702;28;20378;-83
2022/07/09 01:02:27;;;;;;;2.25;1.10;;;;;;;;;;5092571;28;20390;-82
2022/07/09 01:04:53;;;;;;;3.25;1.42;;;;;;;;;;5074852;28;20445;-83
2022/07/09 01:07:19;;;;;;;2.20;1.30;;;;;;;;;;5093702;28;20434;-83
2022/07/09 01:09:45;;;;;;;1.73;1.17;;;;;;;;;;5093774;28;20398;-83
2022/07/09 01:12:12;;;;;;;2.08;1.40;;;;;;;;;;5093636;28;20378;-83
2022/07/09 01:14:37;;;;;;;2.57;1.30;;;;;;;;;;5093654;28;20374;-83
2022/07/09 01:17:05;;;;;;;3.33;1.40;;;;;;;;;;5093498;28;20528;-83
2022/07/09 01:19:31;;;;;;;1.23;1.00;;;;;;;;;;5093512;28;20409;-83
2022/07/09 01:21:58;;;;;;;2.97;1.10;;;;;;;;;;5093093;28;20435;-83
2022/07/09 01:24:24;;;;;;;3.07;1.33;;;;;;;;;;5076940;28;20384;-83
2022/07/09 01:26:52;;;;;;;2.40;1.23;;;;;;;;;;5072953;28;20457;-83
2022/07/09 01:29:18;;;;;;;2.13;1.25;;;;;;;;;;5072925;28;20466;-83
2022/07/09 01:31:44;;;;;;;3.58;1.33;;;;;;;;;;5073022;28;20411;-82
2022/07/09 01:34:10;;;;;;;4.30;1.33;;;;;;;;;;5072543;28;20425;-83
2022/07/09 01:36:36;;;;;;;2.75;1.20;;;;;;;;;;5072973;28;20375;-83
2022/07/09 01:39:02;;;;;;;2.50;1.20;;;;;;;;;;5072784;28;20454;-82
2022/07/09 01:41:28;;;;;;;1.80;1.30;;;;;;;;;;5072906;28;20376;-83
2022/07/09 01:43:54;;;;;;;2.20;1.20;;;;;;;;;;5072626;28;20737;-83
2022/07/09 01:46:20;;;;;;;3.20;1.20;;;;;;;;;;5071455;28;20388;-83
2022/07/09 01:48:46;;;;;;;3.67;1.30;;;;;;;;;;5086146;28;20493;-83
2022/07/09 01:51:13;;;;;;;2.47;1.20;;;;;;;;;;5092998;28;20780;-83
2022/07/09 01:53:39;;;;;;;2.40;1.17;;;;;;;;;;5092772;28;20366;-83
2022/07/09 01:56:09;;;;;;;2.80;1.25;;;;;;;;;;5092701;28;20419;-83
2022/07/09 01:58:35;;;;;;;2.17;1.10;;;;;;;;;;5092864;28;20412;-83
2022/07/09 02:01:01;;;;;;;2.95;1.35;;;;;;;;;;5092885;28;20413;-83
2022/07/09 02:03:27;;;;;;;2.13;1.20;;;;;;;;;;5092912;28;20378;-82
2022/07/09 02:05:53;;;;;;;2.17;1.05;;;;;;;;;;5092738;28;20374;-83
2022/07/09 02:08:19;;;;;;;1.98;1.30;;;;;;;;;;5092876;28;20409;-83
2022/07/09 02:10:46;;;;;;;4.40;1.40;;;;;;;;;;5092627;28;20373;-83
2022/07/09 02:13:12;;;;;;;2.30;1.25;;;;;;;;;;5091562;28;20412;-82
2022/07/09 02:15:39;;;;;;;1.90;1.30;;;;;;;;;;5092702;28;20389;-83
2022/07/09 02:18:05;;;;;;;2.03;1.20;;;;;;;;;;5092564;28;20426;-81
2022/07/09 02:20:32;;;;;;;2.77;1.10;;;;;;;;;;5091125;28;20374;-83
2022/07/09 02:22:58;;;;;;;1.58;1.10;;;;;;;;;;5092536;28;20423;-83
2022/07/09 02:25:24;;;;;;;3.38;1.25;;;;;;;;;;5092332;28;20378;-84
2022/07/09 02:27:50;;;;;;;2.25;1.40;;;;;;;;;;5092435;28;20370;-83
2022/07/09 02:30:16;;;;;;;3.00;1.20;;;;;;;;;;5092457;28;20377;-83
2022/07/09 02:32:42;;;;;;;2.10;1.30;;;;;;;;;;5092346;28;20374;-82
2022/07/09 02:35:08;;;;;;;2.10;1.30;;;;;;;;;;5082374;28;20465;-83
2022/07/09 02:37:35;;;;;;;2.40;1.30;;;;;;;;;;5072241;28;20844;-83
2022/07/09 02:40:01;;;;;;;2.10;1.20;;;;;;;;;;5072226;28;20394;-83
2022/07/09 02:42:27;;;;;;;2.22;1.27;;;;;;;;;;5075687;28;20387;-82
2022/07/09 02:44:53;;;;;;;2.55;1.33;;;;;;;;;;5076176;28;20453;-82
2022/07/09 02:47:19;;;;;;;3.70;1.40;;;;;;;;;;5076435;28;20853;-83
2022/07/09 02:49:45;;;;;;;3.45;1.48;;;;;;;;;;5076088;28;20409;-83
2022/07/09 02:52:11;;;;;;;3.30;1.40;;;;;;;;;;5076112;28;20856;-83
2022/07/09 02:54:37;;;;;;;2.83;1.50;;;;;;;;;;5076013;28;20455;-83
2022/07/09 02:57:04;;;;;;;2.53;1.40;;;;;;;;;;5075872;28;20931;-82
2022/07/09 02:59:30;;;;;;;1.95;1.40;;;;;;;;;;5089960;28;20470;-82
2022/07/09 03:01:56;;;;;;;2.27;1.20;;;;;;;;;;5072724;28;20449;-83
2022/07/09 03:04:22;;;;;;;2.13;1.40;;;;;;;;;;5096094;28;20425;-83
2022/07/09 03:06:48;;;;;;;2.10;1.50;;;;;;;;;;5096065;28;20473;-82
2022/07/09 03:09:14;;;;;;;2.05;1.42;;;;;;;;;;5095922;28;20397;-82
2022/07/09 03:11:40;;;;;;;3.67;1.60;;;;;;;;;;5096001;28;20377;-83
2022/07/09 03:14:06;;;;;;;1.93;1.40;;;;;;;;;;5095995;28;20536;-82
2022/07/09 03:16:32;;;;;;;2.03;1.55;;;;;;;;;;5095962;28;20428;-82
2022/07/09 03:18:58;;;;;;;2.03;1.50;;;;;;;;;;5076069;28;20916;-82
2022/07/09 03:21:24;;;;;;;2.05;1.10;;;;;;;;;;5075443;28;20460;-83
2022/07/09 03:23:50;;;;;;;3.40;1.53;;;;;;;;;;5075406;28;20376;-82
2022/07/09 03:26:16;;;;;;;2.33;1.55;;;;;;;;;;5075404;28;20741;-82
2022/07/09 03:28:42;;;;;;;2.15;1.42;;;;;;;;;;5071786;28;20407;-82
2022/07/09 03:31:08;;;;;;;2.65;1.35;;;;;;;;;;5072618;28;20757;-82
2022/07/09 03:33:34;;;;;;;3.85;1.48;;;;;;;;;;5073201;28;20383;-82
2022/07/09 03:36:00;;;;;;;2.40;1.40;;;;;;;;;;5073654;28;20388;-82
2022/07/09 03:38:27;;;;;;;5.10;1.83;;;;;;;;;;5073185;28;20391;-81
2022/07/09 03:40:53;;;;;;;2.63;1.50;;;;;;;;;;5073601;28;20880;-81
2022/07/09 03:43:19;;;;;;;3.22;1.70;;;;;;;;;;5073120;28;20445;-81
2022/07/09 03:45:45;;;;;;;3.47;1.40;;;;;;;;;;5073776;28;20384;-82
2022/07/09 03:48:11;;;;;;;3.35;1.75;;;;;;;;;;5074771;28;20873;-81
2022/07/09 03:50:40;;;;;;;2.80;1.83;;;;;;;;;;5075000;28;20914;-81
2022/07/09 03:53:06;;;;;;;3.57;2.40;;;;;;;;;;5073356;28;20379;-81
2022/07/09 03:55:32;;;;;;;3.80;2.13;;;;;;;;;;5074784;28;20901;-81
2022/07/09 03:57:58;;;;;;;2.45;1.80;;;;;;;;;;5074717;28;20375;-82
2022/07/09 04:00:25;;;;;;;3.88;1.70;;;;;;;;;;5074650;28;20437;-81
2022/07/09 04:02:51;;;;;;;4.00;1.90;;;;;;;;;;5074772;28;20379;-81
2022/07/09 04:05:17;;;;;;;2.50;1.50;;;;;;;;;;5074571;28;20378;-81
2022/07/09 04:07:43;;;;;;;3.00;1.50;;;;;;;;;;5074640;28;20437;-82
2022/07/09 04:10:09;;;;;;;2.53;1.77;;;;;;;;;;5074577;28;20379;-82
2022/07/09 04:12:35;;;;;;;2.53;1.60;;;;;;;;;;5074650;28;20930;-81
2022/07/09 04:15:01;;;;;;;3.28;1.70;;;;;;;;;;5074461;28;20380;-83
2022/07/09 04:17:30;;;;;;;2.38;1.40;;;;;;;;;;5074800;28;20853;-83
2022/07/09 04:19:56;;;;;;;2.30;1.45;;;;;;;;;;5074347;28;20384;-83
2022/07/09 04:22:22;;;;;;;4.10;1.50;;;;;;;;;;5074479;28;20387;-83
2022/07/09 04:24:48;;;;;;;2.00;1.30;;;;;;;;;;5074455;28;20453;-82
2022/07/09 04:27:14;;;;;;;2.58;1.50;;;;;;;;;;5074233;28;20414;-83
2022/07/09 04:29:42;;;;;;;3.72;1.83;;;;;;;;;;5073762;28;20428;-83
2022/07/09 04:32:12;;;;;;;2.10;1.50;;;;;;;;;;5074127;28;20388;-83
2022/07/09 04:34:38;;;;;;;2.40;1.50;;;;;;;;;;5073996;28;20467;-83
2022/07/09 04:37:04;;;;;;;3.65;1.40;;;;;;;;;;5074102;28;20530;-83
2022/07/09 04:39:30;;;;;;;1.73;1.30;;;;;;;;;;5074255;28;20383;-83
2022/07/09 04:41:56;;;;;;;2.55;1.50;;;;;;;;;;5074104;28;20394;-83
2022/07/09 04:44:22;;;;;;;3.38;1.98;;;;;;;;;;5073916;28;20391;-83
2022/07/09 04:46:48;;;;;;;2.97;1.67;;;;;;;;;;5073854;28;20383;-83
2022/07/09 04:49:14;;;;;;;3.53;1.90;;;;;;;;;;5073760;28;20494;-83
2022/07/09 04:51:40;;;;;;;2.97;1.75;;;;;;;;;;5073796;28;20380;-83
2022/07/09 04:54:06;;;;;;;3.45;2.08;;;;;;;;;;5073358;28;20407;-83
2022/07/09 04:56:32;;;;;;;3.40;1.42;;;;;;;;;;5091760;28;20374;-83
2022/07/09 04:59:00;;;;;;;2.88;1.40;;;;;;;;;;5094092;28;20735;-83
2022/07/09 05:01:26;;;;;;;3.22;1.35;;;;;;;;;;5093767;28;20837;-83
2022/07/09 05:03:53;;;;;;;1.95;1.30;;;;;;;;;;5093450;28;20382;-83
2022/07/09 05:06:19;;;;;;;2.78;1.40;;;;;;;;;;5072530;28;20399;-83
2022/07/09 05:08:47;;;;;;;2.33;1.40;;;;;;;;;;5094145;28;20962;-83
2022/07/09 05:11:13;;;;;;;3.80;1.88;;;;;;;;;;5093482;28;20382;-83
2022/07/09 05:13:42;;;;;;;2.60;1.60;;;;;;;;;;5093408;28;20396;-83
2022/07/09 05:16:08;;;;;;;3.28;1.63;;;;;;;;;;5093521;28;20893;-83
2022/07/09 05:18:34;;;;;;;2.60;1.30;;;;;;;;;;5093402;28;20386;-83
2022/07/09 05:21:00;;;;;;;3.33;1.30;;;;;;;;;;5093452;28;20735;-82
2022/07/09 05:23:26;;;;;;;2.25;1.30;;;;;;;;;;5093321;28;20379;-83
2022/07/09 05:25:53;;;;;;;3.55;1.40;;;;;;;;;;5092085;28;20389;-82
2022/07/09 05:28:19;;;;;;;2.15;1.40;;;;;;;;;;5075739;28;20404;-83
2022/07/09 05:30:45;;;;;;;1.70;1.20;;;;;;;;;;5077984;28;20423;-83
2022/07/09 05:33:11;;;;;;;1.90;1.10;;;;;;;;;;5093232;28;20520;-83
2022/07/09 05:35:37;;;;;;;1.50;1.25;;;;;;;;;;5080434;28;20452;-83
2022/07/09 05:38:03;;;;;;;2.30;1.27;;;;;;;;;;5073060;28;20415;-81
2022/07/09 05:40:29;;;;;;;3.35;1.27;;;;;;;;;;5072711;28;20400;-82
2022/07/09 05:42:55;;;;;;;1.90;1.13;;;;;;;;;;5071602;28;20379;-83
2022/07/09 05:45:21;;;;;;;2.53;1.10;;;;;;;;;;5072835;28;20376;-83
2022/07/09 05:47:47;;;;;;;1.73;0.90;;;;;;;;;;5072532;28;20718;-83
2022/07/09 05:50:13;;;;;;;1.77;1.02;;;;;;;;;;5072676;28;20851;-83
2022/07/09 05:52:39;;;;;;;2.20;1.00;;;;;;;;;;5072763;28;20462;-83
2022/07/09 05:55:05;;;;;;;2.05;1.05;;;;;;;;;;5072532;28;20430;-83
2022/07/09 05:57:32;;;;;;;1.88;0.95;;;;;;;;;;5072639;28;20861;-84
2022/07/09 05:59:58;;;;;;;1.97;1.00;;;;;;;;;;5072306;28;20383;-83
2022/07/09 06:02:24;;;;;;;2.35;0.90;;;;;;;;;;5071929;28;20849;-83
2022/07/09 06:04:50;;;;;;;2.30;1.10;;;;;;;;;;5071429;28;20392;-83
2022/07/09 06:07:16;;;;;;;2.40;1.03;;;;;;;;;;5070848;28;20383;-83
2022/07/09 06:09:42;;;;;;;2.35;1.25;;;;;;;;;;5071194;28;20548;-83
2022/07/09 06:12:08;;;;;;;2.17;1.10;;;;;;;;;;5072414;28;20371;-83
2022/07/09 06:14:34;;;;;;;2.75;1.13;;;;;;;;;;5071211;28;20376;-83
2022/07/09 06:17:05;;;;;;;2.03;1.20;;;;;;;;;;5071579;28;20399;-83
2022/07/09 06:19:32;;;;;;;4.03;1.27;;;;;;;;;;5072740;28;20408;-83
2022/07/09 06:21:58;;;;;;;2.92;1.20;;;;;;;;;;5072182;28;20372;-83
2022/07/09 06:24:24;;;;;;;1.90;1.05;;;;;;;;;;5072250;28;20384;-83
2022/07/09 06:26:50;;;;;;;2.83;1.15;;;;;;;;;;5071018;28;20847;-83
2022/07/09 06:29:16;;;;;;;2.45;1.20;;;;;;;;;;5072208;28;20400;-83
2022/07/09 06:31:42;;;;;;;1.65;1.00;;;;;;;;;;5072372;28;20394;-83
2022/07/09 06:34:10;;;;;;;2.42;1.20;;;;;;;;;;5071922;28;20391;-83
2022/07/09 06:36:36;;;;;;;2.15;1.30;;;;;;;;;;5072323;28;20379;-83
2022/07/09 06:41:47;;;;;;;2.53;1.27;;;;;;;;;;5072170;28;20777;-83
2022/07/09 06:44:13;;;;;;;2.33;1.20;;;;;;;;;;5072032;28;20433;-83
2022/07/09 06:46:39;;;;;;;4.55;1.95;;;;;;;;;;5072154;28;20466;-83
2022/07/09 06:49:05;;;;;;;2.55;1.25;;;;;;;;;;5071952;28;20959;-82
2022/07/09 06:51:31;;;;;;;2.77;1.20;;;;;;;;;;5070831;28;20407;-81
2022/07/09 06:53:57;;;;;;;2.95;1.20;;;;;;;;;;5071948;28;20865;-82
2022/07/09 06:56:23;;;;;;;3.55;1.45;;;;;;;;;;5071938;28;20376;-81
2022/07/09 06:58:49;;;;;;;3.88;1.60;;;;;;;;;;5072179;28;20459;-82
2022/07/09 07:01:15;;;;;;;3.67;1.30;;;;;;;;;;5069203;28;20446;-83
2022/07/09 07:03:41;;;;;;;1.90;1.15;;;;;;;;;;5065556;28;20470;-82
2022/07/09 07:06:07;;;;;;;3.17;1.23;;;;;;;;;;5071290;28;20388;-82
2022/07/09 07:08:33;;;;;;;2.17;1.20;;;;;;;;;;5071080;28;20544;-83
2022/07/09 07:11:00;;;;;;;1.70;1.05;;;;;;;;;;5068497;28;20884;-83
2022/07/09 07:13:26;;;;;;;3.50;1.00;;;;;;;;;;5068713;28;20388;-83
2022/07/09 07:15:52;;;;;;;2.20;1.20;;;;;;;;;;5062337;28;20376;-82
2022/07/09 07:18:18;;;;;;;1.70;1.10;;;;;;;;;;5071624;28;20380;-83
2022/07/09 07:20:45;;;;;;;4.30;1.20;;;;;;;;;;5071798;28;20395;-83
2022/07/09 07:23:11;;;;;;;2.50;1.20;;;;;;;;;;5071905;28;20816;-82
2022/07/09 07:25:37;;;;;;;3.80;1.15;;;;;;;;;;5071415;28;20865;-85
2022/07/09 07:28:04;;;;;;;3.40;1.02;;;;;;;;;;5085757;28;20413;-84
2022/07/09 07:30:32;;;;;;;2.88;1.20;;;;;;;;;;5090492;28;20381;-83
2022/07/09 07:32:59;;;;;;;4.43;1.50;;;;;;;;;;5064668;28;20791;-83
2022/07/09 07:35:25;;;;;;;2.73;1.40;;;;;;;;;;5071912;28;20389;-83
2022/07/09 07:37:51;;;;;;;4.28;1.40;;;;;;;;;;5055860;28;20465;-83
2022/07/09 07:40:17;;;;;;;2.00;1.13;;;;;;;;;;5055573;28;20738;-81
2022/07/09 07:42:43;;;;;;;3.90;1.05;;;;;;;;;;5056183;28;20448;-81
2022/07/09 07:45:09;;;;;;;4.07;1.20;;;;;;;;;;5054523;28;20495;-81
2022/07/09 07:47:35;;;;;;;3.03;1.00;;;;;;;;;;5074015;28;20419;-81
2022/07/09 07:50:01;;;;;;;4.03;1.30;;;;;;;;;;5075169;28;20454;-82
2022/07/09 07:52:27;;;;;;;4.55;1.17;;;;;;;;;;5074071;28;20737;-82
2022/07/09 07:54:53;;;;;;;2.10;0.80;;;;;;;;;;5074705;28;20561;-82
2022/07/09 07:57:19;;;;;;;2.15;0.90;;;;;;;;;;5074807;28;20887;-82
2022/07/09 07:59:46;;;;;;;3.35;1.10;;;;;;;;;;5074787;28;20387;-82
2022/07/09 08:02:12;;;;;;;2.38;0.90;;;;;;;;;;5074774;28;20865;-82
2022/07/09 08:04:38;;;;;;;2.30;0.80;;;;;;;;;;5074759;28;20416;-82
2022/07/09 08:07:04;;;;;;;2.10;0.98;;;;;;;;;;5063681;28;20756;-83
2022/07/09 08:09:32;;;;;;;3.37;0.90;;;;;;;;;;5072535;28;20506;-83
2022/07/09 08:11:59;;;;;;;2.63;0.73;;;;;;;;;;5071820;28;20387;-84
2022/07/09 08:14:25;;;;;;;3.47;1.00;;;;;;;;;;5080052;28;20885;-83
2022/07/09 08:16:51;;;;;;;2.90;0.93;;;;;;;;;;5074421;28;20390;-82
2022/07/09 08:19:17;;;;;;;2.42;0.98;;;;;;;;;;5074345;28;20387;-83
2022/07/09 08:21:43;;;;;;;2.45;1.00;;;;;;;;;;5074297;28;20868;-83
2022/07/09 08:24:09;;;;;;;2.47;1.03;;;;;;;;;;5068183;28;20451;-83
2022/07/09 08:26:35;;;;;;;2.45;1.10;;;;;;;;;;5066669;28;20384;-82
2022/07/09 08:29:01;;;;;;;2.90;1.05;;;;;;;;;;5071945;28;20813;-83
2022/07/09 08:31:27;;;;;;;2.03;0.95;;;;;;;;;;5064388;28;20438;-83
2022/07/09 08:33:53;;;;;;;2.57;1.17;;;;;;;;;;5060228;28;20413;-82
2022/07/09 08:36:19;;;;;;;3.30;1.10;;;;;;;;;;5074381;28;20384;-82
2022/07/09 08:38:46;;;;;;;3.15;0.90;;;;;;;;;;5072007;28;20379;-82
2022/07/09 08:41:13;;;;;;;2.78;1.10;;;;;;;;;;5072217;28;20467;-83
2022/07/09 08:43:39;;;;;;;2.13;1.02;;;;;;;;;;5066202;28;20388;-82
2022/07/09 08:46:06;;;;;;;1.90;0.90;;;;;;;;;;5073920;28;20411;-83
2022/07/09 08:48:33;;;;;;;2.92;1.10;;;;;;;;;;5073937;28;20415;-83
2022/07/09 08:50:59;;;;;;;3.35;1.20;;;;;;;;;;5072526;28;20397;-83
2022/07/09 08:53:27;;;;;;;3.10;1.00;;;;;;;;;;5062126;28;20411;-83
2022/07/09 08:55:54;;;;;;;2.45;0.90;;;;;;;;;;5059259;28;20731;-83
2022/07/09 08:58:20;;;;;;;2.90;1.00;;;;;;;;;;5059926;28;20384;-83
2022/07/09 09:00:48;;;;;;;3.00;1.15;;;;;;;;;;5086916;28;20863;-83
2022/07/09 09:03:14;;;;;;;2.30;1.10;;;;;;;;;;5093871;28;20448;-82
2022/07/09 09:05:40;;;;;;;3.50;1.15;;;;;;;;;;5094103;28;20378;-82
2022/07/09 09:08:19;;;;;;;2.95;1.17;;;;;;;;;;5071663;28;20501;-80
2022/07/09 09:10:46;;;;;;;3.97;0.98;;;;;;;;;;5075567;28;20860;-81
2022/07/09 09:13:14;;;;;;;2.80;1.20;;;;;;;;;;5069260;28;20432;-81
2022/07/09 09:15:40;;;;;;;2.10;1.20;;;;;;;;;;5055434;28;20373;-81
2022/07/09 09:18:06;;;;;;;3.25;1.23;;;;;;;;;;5054917;28;20459;-81
2022/07/09 09:20:32;;;;;;;2.70;1.00;;;;;;;;;;5054479;28;20393;-81
2022/07/09 09:23:02;;;;;;;3.00;1.00;;;;;;;;;;5055777;28;20985;-81
2022/07/09 09:25:28;;;;;;;3.28;0.90;;;;;;;;;;5055240;28;20854;-81
2022/07/09 09:27:59;;;;;;;3.42;1.20;;;;;;;;;;5063661;28;20392;-82
2022/07/09 09:30:26;;;;;;;2.80;1.00;;;;;;;;;;5060207;28;20460;-81
2022/07/09 09:33:15;;;;;;;2.30;1.08;;;;;;;;;;5060448;28;20463;-85
2022/07/09 09:35:44;;;;;;;3.30;1.10;;;;;;;;;;5060028;28;20784;-82
2022/07/09 09:38:10;;;;;;;1.60;0.90;;;;;;;;;;5071513;28;20402;-83
2022/07/09 09:40:36;;;;;;;3.13;1.10;;;;;;;;;;5071218;28;20371;-81
2022/07/09 09:43:03;;;;;;;2.80;1.10;;;;;;;;;;5069247;28;20387;-82
2022/07/09 09:45:30;;;;;;;4.05;0.90;;;;;;;;;;5067020;28;20923;-83
2022/07/09 09:48:00;;;;;;;2.90;1.33;;;;;;;;;;5071410;28;20384;-82
2022/07/09 09:50:26;;;;;;;1.73;0.88;;;;;;;;;;5072346;28;20378;-82
2022/07/09 09:52:54;;;;;;;3.15;0.93;;;;;;;;;;5072638;28;20515;-82
2022/07/09 09:55:21;;;;;;;3.28;1.10;;;;;;;;;;5060156;28;21035;-82
2022/07/09 09:57:48;;;;;;;3.15;0.95;;;;;;;;;;5072597;28;20404;-83
2022/07/09 10:00:15;;;;;;;1.58;0.70;;;;;;;;;;5072594;28;20418;-83
2022/07/09 10:02:45;;;;;;;1.10;0.65;;;;;;;;;;5065526;28;20394;-83
2022/07/09 10:05:11;;;;;;;2.60;0.60;;;;;;;;;;5064944;28;20391;-84
2022/07/09 10:07:37;;;;;;;1.98;0.88;;;;;;;;;;5069969;28;20376;-85
2022/07/09 10:10:06;;;;;;;2.65;0.70;;;;;;;;;;5062726;28;20767;-84
2022/07/09 10:12:35;;;;;;;1.63;0.87;;;;;;;;;;5060932;28;20387;-84
2022/07/09 10:15:01;;;;;;;1.13;0.52;;;;;;;;;;5072467;28;20376;-85
2022/07/09 10:17:28;;;;;;;1.42;0.57;;;;;;;;;;5072554;28;20378;-81
2022/07/09 10:20:03;;;;;;;1.13;0.50;;;;;;;;;;5072341;28;20376;-80
2022/07/09 10:22:40;;;;;;;1.50;0.60;;;;;;;;;;5072246;28;20772;-79
2022/07/09 10:25:07;;;;;;;1.60;0.50;;;;;;;;;;5072324;28;20372;-79
2022/07/09 10:27:45;;;;;;;1.08;0.40;;;;;;;;;;5065743;28;20437;-79
2022/07/09 10:30:27;;;;;;;1.60;0.52;;;;;;;;;;5069571;28;20411;-83
2022/07/09 10:33:03;;;;;;;1.75;0.68;;;;;;;;;;5071717;28;20375;-85
2022/07/09 10:35:30;;;;;;;1.98;0.60;;;;;;;;;;5065389;28;20869;-83
2022/07/09 10:37:56;;;;;;;1.52;0.70;;;;;;;;;;5067484;28;20852;-82
2022/07/09 10:40:24;;;;;;;1.08;0.60;;;;;;;;;;5080022;28;20877;-83
2022/07/09 10:43:03;;;;;;;1.48;0.60;;;;;;;;;;5062232;28;20467;-83
2022/07/09 10:45:31;;;;;;;1.90;0.80;;;;;;;;;;5067486;28;20456;-82
2022/07/09 10:48:00;;;;;;;1.50;0.65;;;;;;;;;;5064320;28;20381;-83
2022/07/09 10:50:27;;;;;;;2.13;0.75;;;;;;;;;;5069967;28;20899;-83
2022/07/09 10:52:54;;;;;;;2.17;0.73;;;;;;;;;;5075004;28;20388;-83
2022/07/09 10:55:20;;;;;;;2.15;0.50;;;;;;;;;;5074502;28;20379;-83
2022/07/09 10:57:46;;;;;;;2.40;0.63;;;;;;;;;;5059339;28;20385;-83
2022/07/09 11:00:16;;;;;;;1.42;0.52;;;;;;;;;;5067954;28;20844;-83
2022/07/09 11:03:04;;;;;;;1.75;0.80;;;;;;;;;;5075849;28;20439;-83
2022/07/09 11:05:32;;;;;;;1.50;0.80;;;;;;;;;;5076288;28;20381;-85
2022/07/09 11:08:05;;;;;;;2.13;0.80;;;;;;;;;;5076337;28;20380;-84
2022/07/09 11:10:32;;;;;;;2.45;0.90;;;;;;;;;;5072007;28;20450;-83
2022/07/09 11:12:59;;;;;;;2.40;0.70;;;;;;;;;;5069977;28;20380;-84
2022/07/09 11:15:29;;;;;;;2.23;0.80;;;;;;;;;;5075190;28;21036;-83
2022/07/09 11:17:55;;;;;;;1.65;0.70;;;;;;;;;;5063523;28;20426;-83
2022/07/09 11:20:22;;;;;;;2.15;0.77;;;;;;;;;;5075523;28;20384;-82
2022/07/09 11:22:48;;;;;;;2.15;0.70;;;;;;;;;;5075585;28;20856;-83
2022/07/09 11:25:18;;;;;;;2.05;0.80;;;;;;;;;;5074167;28;20391;-84
2022/07/09 11:27:44;;;;;;;2.77;0.90;;;;;;;;;;5074450;28;20475;-84
2022/07/09 11:30:14;;;;;;;1.25;0.65;;;;;;;;;;5075398;28;20399;-85
2022/07/09 11:32:44;;;;;;;1.55;0.60;;;;;;;;;;5071240;28;20382;-84
2022/07/09 11:35:10;;;;;;;3.40;0.90;;;;;;;;;;5061781;28;20395;-84
2022/07/09 11:37:37;;;;;;;1.40;0.70;;;;;;;;;;5075220;28;20437;-80
2022/07/09 11:40:03;;;;;;;1.38;0.55;;;;;;;;;;5075111;28;20380;-80
2022/07/09 11:42:29;;;;;;;2.45;0.70;;;;;;;;;;5072889;28;20387;-80
2022/07/09 11:44:59;;;;;;;1.90;0.80;;;;;;;;;;5074802;28;20433;-80
2022/07/09 11:47:51;;;;;;;0.88;0.50;;;;;;;;;;5075451;28;20841;-86
2022/07/09 11:50:18;;;;;;;1.60;0.70;;;;;;;;;;5072971;28;20418;-80
2022/07/09 11:52:49;;;;;;;2.17;0.60;;;;;;;;;;5067454;28;20401;-80
2022/07/09 11:55:31;;;;;;;1.48;0.75;;;;;;;;;;5072471;28;20379;-80
2022/07/09 11:58:03;;;;;;;1.83;0.80;;;;;;;;;;5074757;28;20412;-80
2022/07/09 12:00:31;;;;;;;1.58;0.70;;;;;;;;;;5073028;28;20376;-80
2022/07/09 12:02:59;;;;;;;1.17;0.73;;;;;;;;;;5074268;28;20419;-81
2022/07/09 12:05:26;;;;;;;1.58;0.70;;;;;;;;;;5072022;28;20387;-82
2022/07/09 12:07:56;;;;;;;1.35;0.57;;;;;;;;;;5071507;28;20395;-81
2022/07/09 12:10:26;;;;;;;2.63;1.10;;;;;;;;;;5073026;28;20411;-81
2022/07/09 12:12:52;;;;;;;3.08;0.90;;;;;;;;;;5073882;28;20927;-80
2022/07/09 12:15:18;;;;;;;2.45;0.80;;;;;;;;;;5072629;28;20384;-80
2022/07/09 12:17:44;;;;;;;1.88;0.73;;;;;;;;;;5073952;28;20390;-80
2022/07/09 12:20:10;;;;;;;1.50;0.70;;;;;;;;;;5074295;28;20380;-80
2022/07/09 12:22:37;;;;;;;2.17;0.90;;;;;;;;;;5074451;28;20382;-80
2022/07/09 12:25:03;;;;;;;1.42;0.70;;;;;;;;;;5074336;28;20382;-83
2022/07/09 12:27:29;;;;;;;1.02;0.77;;;;;;;;;;5060059;28;20437;-80
2022/07/09 12:29:55;;;;;;;2.35;0.85;;;;;;;;;;5072976;28;20403;-81
2022/07/09 12:32:21;;;;;;;2.03;0.90;;;;;;;;;;5074100;28;20368;-80
2022/07/09 12:34:47;;;;;;;1.92;0.73;;;;;;;;;;5072694;28;20898;-80
2022/07/09 12:37:13;;;;;;;2.63;0.90;;;;;;;;;;5074112;28;20374;-80
2022/07/09 12:39:39;;;;;;;1.30;0.65;;;;;;;;;;5074415;28;20459;-81
2022/07/09 12:42:05;;;;;;;1.17;0.60;;;;;;;;;;5074039;28;20399;-79
2022/07/09 12:44:31;;;;;;;2.03;0.70;;;;;;;;;;5073517;28;20855;-80
2022/07/09 12:46:57;;;;;;;1.88;0.73;;;;;;;;;;5073612;28;20383;-79
2022/07/09 12:49:23;;;;;;;1.67;0.80;;;;;;;;;;5072430;28;20411;-79
2022/07/09 12:51:49;;;;;;;1.75;0.63;;;;;;;;;;5073817;28;20461;-80
2022/07/09 12:54:15;;;;;;;0.98;0.60;;;;;;;;;;5073303;28;20993;-79
2022/07/09 12:56:41;;;;;;;2.25;0.70;;;;;;;;;;5081030;28;20432;-79
2022/07/09 12:59:09;;;;;;;2.10;0.90;;;;;;;;;;5093817;28;20410;-79
2022/07/09 13:01:35;;;;;;;2.30;0.63;;;;;;;;;;5090063;28;20407;-79
2022/07/09 13:04:01;;;;;;;1.88;0.60;;;;;;;;;;5073345;28;20441;-79
2022/07/09 13:06:30;;;;;;;1.30;0.52;;;;;;;;;;5073464;28;20376;-82
2022/07/09 13:08:57;;;;;;;1.58;0.70;;;;;;;;;;5072489;28;20912;-80
2022/07/09 13:11:23;;;;;;;1.92;0.80;;;;;;;;;;5073576;28;20458;-80
2022/07/09 13:13:49;;;;;;;1.23;0.50;;;;;;;;;;5073246;28;20433;-79
2022/07/09 13:16:15;;;;;;;1.30;0.63;;;;;;;;;;5073348;28;20391;-79
2022/07/09 13:18:41;;;;;;;1.50;0.70;;;;;;;;;;5071985;28;20411;-81
2022/07/09 13:21:07;;;;;;;0.82;0.52;;;;;;;;;;5069751;28;20891;-81
2022/07/09 13:23:33;;;;;;;2.13;0.70;;;;;;;;;;5070846;28;20396;-81
2022/07/09 13:25:59;;;;;;;1.52;0.70;;;;;;;;;;5072643;28;20837;-81
2022/07/09 13:28:26;;;;;;;3.20;0.82;;;;;;;;;;5072903;28;20404;-80
2022/07/09 13:30:52;;;;;;;1.52;0.90;;;;;;;;;;5071833;28;20380;-80
2022/07/09 13:33:18;;;;;;;2.28;0.75;;;;;;;;;;5071617;28;20853;-81
2022/07/09 13:35:44;;;;;;;1.25;0.55;;;;;;;;;;5072743;28;20487;-81
2022/07/09 13:38:10;;;;;;;1.10;0.60;;;;;;;;;;5072463;28;20387;-82
2022/07/09 13:40:36;;;;;;;2.17;0.70;;;;;;;;;;5072743;28;20379;-80
2022/07/09 13:43:02;;;;;;;1.30;0.68;;;;;;;;;;5072340;28;20845;-81
2022/07/09 13:45:28;;;;;;;1.02;0.60;;;;;;;;;;5072650;28;20384;-79
2022/07/09 13:47:55;;;;;;;1.67;0.70;;;;;;;;;;5072332;28;20383;-80
2022/07/09 13:50:21;;;;;;;1.55;0.70;;;;;;;;;;5087093;28;20401;-79
2022/07/09 13:52:47;;;;;;;1.40;0.60;;;;;;;;;;5093212;28;20377;-80
2022/07/09 13:55:13;;;;;;;2.13;0.80;;;;;;;;;;5092796;28;20423;-80
2022/07/09 13:57:39;;;;;;;1.10;0.50;;;;;;;;;;5092677;28;20378;-80
2022/07/09 14:00:06;;;;;;;1.02;0.65;;;;;;;;;;5092750;28;20424;-80
2022/07/09 14:02:35;;;;;;;2.38;0.77;;;;;;;;;;5081106;28;20454;-79
2022/07/09 14:05:01;;;;;;;2.35;0.73;;;;;;;;;;5072410;28;20383;-80
2022/07/09 14:07:27;;;;;;;2.75;0.70;;;;;;;;;;5072403;28;20387;-80
2022/07/09 14:09:53;;;;;;;1.77;0.70;;;;;;;;;;5072202;28;20407;-79
2022/07/09 14:12:20;;;;;;;2.20;0.70;;;;;;;;;;5071684;28;20407;-80
2022/07/09 14:14:47;;;;;;;1.55;0.60;;;;;;;;;;5071693;28;20426;-80
2022/07/09 14:17:13;;;;;;;1.27;0.70;;;;;;;;;;5070658;28;20403;-80
2022/07/09 14:19:39;;;;;;;1.85;0.68;;;;;;;;;;5072064;28;20379;-79
2022/07/09 14:22:05;;;;;;;9.50;8.65;;;;;;;;;;5072204;28;20755;-79
2022/07/09 14:24:31;;;;;;;9.35;8.48;;;;;;;;;;5071841;28;20383;-79
2022/07/09 14:26:57;;;;;;;1.30;0.90;;;;;;;;;;5071993;28;20761;-80
2022/07/09 14:29:23;;;;;;;1.20;0.60;;;;;;;;;;5072132;28;20408;-80
2022/07/09 14:31:50;;;;;;;1.30;0.70;;;;;;;;;;5072073;28;20372;-80
2022/07/09 14:34:16;;;;;;;1.90;0.80;;;;;;;;;;5071918;28;20391;-80
2022/07/09 14:36:42;;;;;;;95.78;86.55;;;;;;;;;;5071097;28;20470;-80
2022/07/09 14:39:11;;;;;;;1.43;0.87;;;;;;;;;;5072154;28;20381;-80
2022/07/09 14:41:37;;;;;;;2.10;0.85;;;;;;;;;;5072044;28;20891;-80
2022/07/09 14:44:04;;;;;;;1.77;0.80;;;;;;;;;;5071686;28;20457;-80